Time;durP1;ratioP1;P1;durP2;ratioP2;P2;SDS_P1;SDS_P2;PMS_P1;PMS_P2;Temp;Humidity;BMP_temperature;BMP_pressure;BME280_temperature;BME280_humidity;BME280_pressure;Samples;Min_cycle;Max_cycle;Signal;HPM_P1;HPM_P2
2021/09/14 00:01:32;;;;;;;569.90;387.80;;;;;;;;;;4366881;32;20079;-57
2021/09/14 00:04:01;;;;;;;553.67;372.12;;;;;;;;;;4370386;32;20068;-57
2021/09/14 00:06:29;;;;;;;554.10;388.85;;;;;;;;;;4367545;32;20119;-57
2021/09/14 00:08:57;;;;;;;555.05;386.62;;;;;;;;;;4368371;32;20067;-57
2021/09/14 00:11:26;;;;;;;557.47;382.17;;;;;;;;;;4367699;32;20436;-57
2021/09/14 00:13:54;;;;;;;560.33;410.50;;;;;;;;;;4367535;32;20113;-56
2021/09/14 00:16:22;;;;;;;568.58;413.08;;;;;;;;;;4369318;32;20055;-57
2021/09/14 00:18:51;;;;;;;566.53;406.83;;;;;;;;;;4368580;32;20077;-56
2021/09/14 00:21:19;;;;;;;566.97;406.95;;;;;;;;;;4373049;32;20077;-57
2021/09/14 00:23:47;;;;;;;579.35;404.55;;;;;;;;;;4371802;32;20039;-57
2021/09/14 00:26:16;;;;;;;588.85;416.80;;;;;;;;;;4372435;32;20431;-57
2021/09/14 00:28:44;;;;;;;582.92;399.40;;;;;;;;;;4370712;32;20402;-56
2021/09/14 00:31:12;;;;;;;587.50;404.23;;;;;;;;;;4363492;32;20469;-56
2021/09/14 00:33:42;;;;;;;563.17;382.05;;;;;;;;;;4369344;32;20117;-56
2021/09/14 00:36:10;;;;;;;563.67;391.80;;;;;;;;;;4371740;32;20075;-56
2021/09/14 00:38:38;;;;;;;580.90;399.05;;;;;;;;;;4367365;32;20048;-56
2021/09/14 00:41:07;;;;;;;599.28;410.70;;;;;;;;;;4366522;32;20124;-57
2021/09/14 00:43:35;;;;;;;602.20;411.30;;;;;;;;;;4366608;32;20149;-57
2021/09/14 00:46:04;;;;;;;593.65;405.25;;;;;;;;;;4370745;32;20047;-57
2021/09/14 00:48:32;;;;;;;556.63;374.33;;;;;;;;;;4370714;32;20078;-57
2021/09/14 00:51:00;;;;;;;564.83;376.92;;;;;;;;;;4370628;32;20065;-56
2021/09/14 00:53:28;;;;;;;554.87;385.95;;;;;;;;;;4370421;32;20117;-57
2021/09/14 00:55:57;;;;;;;561.90;391.92;;;;;;;;;;4360519;32;20047;-57
2021/09/14 00:58:26;;;;;;;562.12;384.08;;;;;;;;;;4358769;32;20095;-57
2021/09/14 01:00:54;;;;;;;577.72;394.85;;;;;;;;;;4362715;32;20082;-56
2021/09/14 01:03:23;;;;;;;555.53;384.85;;;;;;;;;;4366974;32;20051;-57
2021/09/14 01:05:52;;;;;;;551.87;377.50;;;;;;;;;;4373095;32;20122;-56
2021/09/14 01:08:20;;;;;;;563.65;379.08;;;;;;;;;;4371649;32;20157;-57
2021/09/14 01:10:49;;;;;;;570.20;375.17;;;;;;;;;;4371084;32;20149;-56
2021/09/14 01:13:17;;;;;;;563.53;388.17;;;;;;;;;;4372669;32;20039;-56
2021/09/14 01:15:45;;;;;;;556.10;374.58;;;;;;;;;;4369796;32;20105;-56
2021/09/14 01:18:14;;;;;;;547.75;380.20;;;;;;;;;;4372040;32;20137;-56
2021/09/14 01:20:42;;;;;;;546.00;369.20;;;;;;;;;;4370407;32;20101;-56
2021/09/14 01:23:11;;;;;;;548.95;372.05;;;;;;;;;;4371512;32;20594;-56
2021/09/14 01:25:40;;;;;;;529.35;362.00;;;;;;;;;;4369799;32;20043;-57
2021/09/14 01:28:08;;;;;;;550.62;378.83;;;;;;;;;;4367211;32;20082;-57
2021/09/14 01:30:37;;;;;;;550.20;379.30;;;;;;;;;;4366204;32;20078;-56
2021/09/14 01:33:06;;;;;;;544.60;377.42;;;;;;;;;;4362864;32;20150;-56
2021/09/14 01:35:35;;;;;;;551.28;376.60;;;;;;;;;;4356124;32;20160;-56
2021/09/14 01:38:04;;;;;;;551.08;377.30;;;;;;;;;;4363861;32;20070;-56
2021/09/14 01:40:32;;;;;;;545.83;367.55;;;;;;;;;;4369447;32;20086;-57
2021/09/14 01:43:04;;;;;;;543.85;367.25;;;;;;;;;;4368990;32;20047;-57
2021/09/14 01:45:33;;;;;;;534.53;364.15;;;;;;;;;;4370045;32;20181;-56
2021/09/14 01:48:02;;;;;;;528.95;372.17;;;;;;;;;;4371203;32;20097;-57
2021/09/14 01:50:31;;;;;;;538.42;364.05;;;;;;;;;;4371041;32;20099;-57
2021/09/14 01:53:02;;;;;;;537.95;368.33;;;;;;;;;;4370152;32;20470;-57
2021/09/14 01:55:30;;;;;;;543.78;364.50;;;;;;;;;;4370500;32;20534;-57
2021/09/14 01:57:59;;;;;;;537.03;362.33;;;;;;;;;;4371437;32;20467;-56
2021/09/14 02:00:31;;;;;;;517.37;358.60;;;;;;;;;;4371137;32;20074;-57
2021/09/14 03:00:53;;;;;;;493.27;343.37;;;;;;;;;;4370885;32;20134;-57
2021/09/14 03:03:23;;;;;;;490.60;339.02;;;;;;;;;;4368755;32;20648;-57
2021/09/14 03:05:52;;;;;;;493.83;331.45;;;;;;;;;;4368683;32;20134;-56
2021/09/14 03:08:21;;;;;;;488.45;344.73;;;;;;;;;;4369973;32;20059;-57
2021/09/14 03:10:49;;;;;;;486.00;317.52;;;;;;;;;;4370743;32;20061;-57
2021/09/14 03:13:18;;;;;;;484.30;332.27;;;;;;;;;;4370037;32;20407;-56
2021/09/14 03:15:46;;;;;;;493.05;338.85;;;;;;;;;;4369049;32;20051;-56
2021/09/14 03:18:15;;;;;;;482.23;333.70;;;;;;;;;;4368151;32;20550;-57
2021/09/14 03:20:43;;;;;;;474.17;326.58;;;;;;;;;;4368655;32;20051;-56
2021/09/14 03:23:12;;;;;;;493.55;324.55;;;;;;;;;;4367425;32;20097;-56
2021/09/14 03:25:40;;;;;;;495.27;325.60;;;;;;;;;;4367782;32;20100;-56
2021/09/14 03:28:09;;;;;;;493.00;328.65;;;;;;;;;;4369519;32;20074;-56
2021/09/14 03:30:38;;;;;;;491.80;346.62;;;;;;;;;;4369614;32;20093;-57
2021/09/14 03:33:06;;;;;;;489.20;335.40;;;;;;;;;;4367505;32;20477;-56
2021/09/14 03:35:35;;;;;;;485.17;335.80;;;;;;;;;;4357690;32;20133;-56
2021/09/14 03:38:04;;;;;;;491.95;338.83;;;;;;;;;;4357806;32;21818;-56
2021/09/14 03:40:32;;;;;;;484.85;349.65;;;;;;;;;;4367815;32;20047;-57
2021/09/14 03:43:00;;;;;;;490.80;324.45;;;;;;;;;;4370490;32;20119;-57
2021/09/14 03:45:29;;;;;;;484.50;333.65;;;;;;;;;;4368082;32;20069;-56
2021/09/14 03:47:57;;;;;;;480.17;329.83;;;;;;;;;;4369601;32;20126;-56
2021/09/14 03:50:26;;;;;;;478.50;332.83;;;;;;;;;;4368377;32;20094;-56
2021/09/14 03:52:54;;;;;;;474.55;326.30;;;;;;;;;;4369661;32;20212;-56
2021/09/14 03:55:22;;;;;;;474.70;322.17;;;;;;;;;;4369707;32;20118;-57
2021/09/14 03:57:51;;;;;;;485.20;323.00;;;;;;;;;;4368412;32;20095;-56
2021/09/14 04:00:20;;;;;;;481.45;324.58;;;;;;;;;;4368551;32;20054;-56
2021/09/14 04:02:53;;;;;;;474.40;332.37;;;;;;;;;;4367052;32;20708;-57
2021/09/14 04:05:39;;;;;;;480.37;343.95;;;;;;;;;;4369579;32;20129;-56
2021/09/14 04:10:44;;;;;;;474.17;339.30;;;;;;;;;;4367753;32;20098;-56
2021/09/14 04:13:13;;;;;;;464.13;333.20;;;;;;;;;;4367957;32;20197;-56
2021/09/14 04:15:41;;;;;;;465.42;317.60;;;;;;;;;;4367238;32;20465;-57
2021/09/14 04:18:10;;;;;;;458.55;330.77;;;;;;;;;;4368649;32;20385;-57
2021/09/14 04:20:39;;;;;;;462.38;335.00;;;;;;;;;;4369560;32;20416;-56
2021/09/14 04:23:07;;;;;;;462.02;311.83;;;;;;;;;;4367192;32;20153;-57
2021/09/14 04:25:36;;;;;;;466.58;317.67;;;;;;;;;;4370077;32;20069;-56
2021/09/14 04:28:05;;;;;;;461.35;318.33;;;;;;;;;;4367718;32;20154;-57
2021/09/14 04:30:34;;;;;;;465.92;322.65;;;;;;;;;;4368879;32;20140;-56
2021/09/14 04:33:02;;;;;;;476.63;316.10;;;;;;;;;;4366952;32;20535;-56
2021/09/14 04:35:32;;;;;;;466.23;318.33;;;;;;;;;;4368964;32;20065;-56
2021/09/14 04:38:00;;;;;;;452.92;316.30;;;;;;;;;;4368685;32;20047;-56
2021/09/14 04:40:29;;;;;;;451.98;310.63;;;;;;;;;;4368834;32;20098;-57
2021/09/14 04:42:58;;;;;;;457.55;317.98;;;;;;;;;;4366763;32;20923;-56
2021/09/14 04:45:26;;;;;;;463.23;320.12;;;;;;;;;;4368375;32;20145;-56
2021/09/14 04:47:55;;;;;;;472.33;304.85;;;;;;;;;;4368040;32;20043;-57
2021/09/14 04:50:24;;;;;;;476.15;324.40;;;;;;;;;;4370173;32;20090;-57
2021/09/14 04:52:52;;;;;;;471.52;326.20;;;;;;;;;;4368046;32;20048;-57
2021/09/14 04:55:20;;;;;;;463.75;318.42;;;;;;;;;;4369343;32;20415;-57
2021/09/14 04:57:49;;;;;;;458.52;314.55;;;;;;;;;;4367878;32;20626;-56
2021/09/14 05:00:17;;;;;;;448.73;314.30;;;;;;;;;;4368768;32;20040;-57
2021/09/14 05:02:46;;;;;;;449.17;304.45;;;;;;;;;;4367514;32;20505;-57
2021/09/14 05:05:14;;;;;;;445.38;304.95;;;;;;;;;;4368145;32;20043;-56
2021/09/14 05:07:44;;;;;;;441.25;290.45;;;;;;;;;;4369772;32;20496;-57
2021/09/14 05:10:12;;;;;;;446.50;297.20;;;;;;;;;;4371041;32;20047;-57
2021/09/14 05:12:41;;;;;;;441.73;283.95;;;;;;;;;;4371072;32;20078;-56
2021/09/14 05:15:10;;;;;;;440.77;274.67;;;;;;;;;;4372348;32;20055;-56
2021/09/14 05:17:41;;;;;;;433.35;266.95;;;;;;;;;;4368953;32;20043;-56
2021/09/14 05:20:11;;;;;;;455.25;302.85;;;;;;;;;;4371526;32;20114;-57
2021/09/14 05:22:40;;;;;;;443.75;318.35;;;;;;;;;;4372218;32;20055;-56
2021/09/14 05:25:09;;;;;;;427.77;294.40;;;;;;;;;;4370480;32;20097;-56
2021/09/14 05:27:37;;;;;;;421.35;291.30;;;;;;;;;;4369709;32;20126;-57
2021/09/14 05:30:05;;;;;;;417.58;290.98;;;;;;;;;;4371151;32;20178;-57
2021/09/14 05:32:35;;;;;;;415.48;274.67;;;;;;;;;;4370183;32;20075;-57
2021/09/14 05:35:03;;;;;;;422.98;286.35;;;;;;;;;;4369695;32;20694;-57
2021/09/14 05:37:31;;;;;;;425.62;292.17;;;;;;;;;;4370403;32;20047;-57
2021/09/14 05:40:00;;;;;;;424.33;292.95;;;;;;;;;;4365092;32;20117;-57
2021/09/14 05:42:32;;;;;;;424.83;288.67;;;;;;;;;;4360280;32;20064;-57
2021/09/14 05:45:01;;;;;;;403.33;270.12;;;;;;;;;;4367662;32;20184;-56
2021/09/14 05:47:29;;;;;;;404.35;273.98;;;;;;;;;;4371751;32;20600;-57
2021/09/14 05:49:59;;;;;;;424.80;288.98;;;;;;;;;;4369433;32;20048;-57
2021/09/14 05:52:28;;;;;;;413.20;273.02;;;;;;;;;;4370897;32;20060;-57
2021/09/14 05:54:56;;;;;;;424.45;297.58;;;;;;;;;;4368411;32;20077;-56
2021/09/14 05:57:24;;;;;;;405.95;298.33;;;;;;;;;;4363655;32;20649;-56
2021/09/14 05:59:53;;;;;;;419.45;302.48;;;;;;;;;;4365172;32;20463;-57
2021/09/14 06:02:21;;;;;;;400.30;286.27;;;;;;;;;;4364594;32;20106;-56
2021/09/14 06:04:50;;;;;;;401.15;274.55;;;;;;;;;;4362334;32;20051;-56
2021/09/14 06:07:20;;;;;;;407.77;296.15;;;;;;;;;;4367515;32;20580;-56
2021/09/14 06:09:48;;;;;;;387.67;274.70;;;;;;;;;;4367398;32;20162;-56
2021/09/14 06:12:16;;;;;;;377.45;257.30;;;;;;;;;;4365720;32;20509;-57
2021/09/14 06:14:45;;;;;;;387.85;267.48;;;;;;;;;;4369277;32;20055;-57
2021/09/14 06:17:13;;;;;;;357.77;254.18;;;;;;;;;;4368859;32;20051;-56
2021/09/14 06:19:47;;;;;;;339.12;229.38;;;;;;;;;;4370995;32;20115;-57
2021/09/14 06:22:15;;;;;;;342.95;231.23;;;;;;;;;;4370126;32;20052;-57
2021/09/14 06:24:44;;;;;;;373.73;254.45;;;;;;;;;;4367527;32;20100;-57
2021/09/14 06:27:12;;;;;;;364.33;218.80;;;;;;;;;;4370655;32;20043;-57
2021/09/14 06:29:41;;;;;;;371.42;229.40;;;;;;;;;;4368217;32;20086;-57
2021/09/14 06:32:11;;;;;;;358.87;213.90;;;;;;;;;;4370302;32;20705;-57
2021/09/14 06:34:41;;;;;;;373.25;230.15;;;;;;;;;;4369623;32;20108;-57
2021/09/14 06:37:10;;;;;;;341.10;205.95;;;;;;;;;;4370462;32;20097;-57
2021/09/14 06:39:38;;;;;;;349.58;217.90;;;;;;;;;;4368493;32;20127;-57
2021/09/14 06:42:06;;;;;;;330.70;195.93;;;;;;;;;;4365415;32;20756;-57
2021/09/14 06:44:35;;;;;;;361.75;235.85;;;;;;;;;;4365095;32;20102;-56
2021/09/14 06:47:04;;;;;;;349.00;233.60;;;;;;;;;;4363961;32;20487;-56
2021/09/14 06:49:32;;;;;;;367.33;238.27;;;;;;;;;;4368812;32;21538;-56
2021/09/14 06:52:01;;;;;;;393.02;245.68;;;;;;;;;;4370631;32;20078;-53
2021/09/14 06:54:29;;;;;;;398.95;243.25;;;;;;;;;;4369183;32;20459;-53
2021/09/14 06:56:57;;;;;;;461.75;286.83;;;;;;;;;;4371152;32;20048;-53
2021/09/14 06:59:26;;;;;;;461.88;284.95;;;;;;;;;;4369847;32;20067;-53
2021/09/14 07:01:54;;;;;;;431.90;266.80;;;;;;;;;;4370276;32;20094;-53
2021/09/14 07:04:42;;;;;;;492.70;303.40;;;;;;;;;;4371038;32;20071;-53
2021/09/14 07:07:10;;;;;;;498.40;303.05;;;;;;;;;;4370580;32;20122;-53
2021/09/14 07:09:40;;;;;;;498.08;305.85;;;;;;;;;;4370996;32;20094;-53
2021/09/14 07:12:09;;;;;;;443.27;284.15;;;;;;;;;;4370957;32;20051;-53
2021/09/14 07:14:38;;;;;;;445.50;281.42;;;;;;;;;;4369761;32;20051;-53
2021/09/14 07:17:09;;;;;;;524.40;317.40;;;;;;;;;;4367814;32;20095;-53
2021/09/14 07:19:37;;;;;;;523.83;321.50;;;;;;;;;;4370497;32;20129;-53
2021/09/14 07:22:05;;;;;;;526.15;323.17;;;;;;;;;;4369826;32;20470;-53
2021/09/14 07:24:34;;;;;;;532.65;329.42;;;;;;;;;;4371055;32;20047;-53
2021/09/14 07:27:02;;;;;;;544.80;334.80;;;;;;;;;;4370834;32;20071;-53
2021/09/14 07:29:33;;;;;;;470.17;288.45;;;;;;;;;;4366402;32;20047;-54
2021/09/14 07:32:02;;;;;;;475.73;285.08;;;;;;;;;;4370457;32;20089;-54
2021/09/14 07:34:31;;;;;;;475.40;288.73;;;;;;;;;;4368765;32;20134;-53
2021/09/14 07:37:00;;;;;;;480.23;296.30;;;;;;;;;;4371264;32;20079;-53
2021/09/14 07:39:28;;;;;;;520.62;323.60;;;;;;;;;;4369457;32;20055;-54
2021/09/14 07:41:56;;;;;;;529.65;326.05;;;;;;;;;;4368361;32;20117;-54
2021/09/14 07:44:25;;;;;;;515.88;346.08;;;;;;;;;;4369297;32;20078;-54
2021/09/14 07:46:53;;;;;;;515.33;345.70;;;;;;;;;;4370209;32;20684;-54
2021/09/14 07:49:21;;;;;;;559.75;360.35;;;;;;;;;;4367722;32;20150;-54
2021/09/14 07:51:50;;;;;;;574.28;357.83;;;;;;;;;;4368681;32;20070;-54
2021/09/14 07:54:18;;;;;;;567.58;361.58;;;;;;;;;;4369734;32;20118;-54
2021/09/14 07:56:47;;;;;;;568.13;366.80;;;;;;;;;;4370115;32;20109;-54
2021/09/14 07:59:15;;;;;;;501.63;361.90;;;;;;;;;;4366991;32;20051;-54
2021/09/14 08:01:43;;;;;;;508.83;376.77;;;;;;;;;;4367583;32;20047;-55
2021/09/14 08:04:12;;;;;;;511.12;392.62;;;;;;;;;;4369700;32;20458;-55
2021/09/14 08:06:40;;;;;;;569.13;435.80;;;;;;;;;;4369297;32;20148;-55
2021/09/14 08:09:08;;;;;;;573.30;509.80;;;;;;;;;;4366278;32;20142;-55
2021/09/14 08:11:37;;;;;;;290.67;266.95;;;;;;;;;;4368338;32;20132;-55
2021/09/14 08:14:05;;;;;;;5.32;2.75;;;;;;;;;;4365172;32;20113;-55
2021/09/14 08:16:33;;;;;;;2.50;0.70;;;;;;;;;;4365787;32;20179;-55
2021/09/14 08:19:02;;;;;;;2.83;0.60;;;;;;;;;;4367407;32;20083;-55
2021/09/14 08:21:30;;;;;;;4.12;0.55;;;;;;;;;;4366112;32;20079;-56
2021/09/14 08:23:59;;;;;;;3.60;0.65;;;;;;;;;;4367593;32;20109;-55
2021/09/14 08:26:27;;;;;;;2.42;0.35;;;;;;;;;;4367219;32;20047;-55
2021/09/14 08:28:55;;;;;;;1.77;0.70;;;;;;;;;;4367115;32;20094;-55
2021/09/14 08:31:24;;;;;;;4.07;0.77;;;;;;;;;;4366951;32;20523;-56
2021/09/14 08:33:52;;;;;;;2.60;0.50;;;;;;;;;;4364702;32;20125;-56
2021/09/14 08:36:21;;;;;;;2.12;0.45;;;;;;;;;;4364754;32;20391;-55
2021/09/14 08:38:49;;;;;;;2.40;0.70;;;;;;;;;;4366198;32;20078;-55
2021/09/14 08:41:18;;;;;;;3.75;0.70;;;;;;;;;;4364642;32;20097;-55
2021/09/14 08:43:48;;;;;;;3.70;0.98;;;;;;;;;;4367429;32;20498;-55
2021/09/14 08:46:17;;;;;;;3.80;0.80;;;;;;;;;;4366290;32;20556;-56
2021/09/14 08:48:46;;;;;;;3.25;0.60;;;;;;;;;;4366154;32;20051;-56
2021/09/14 08:51:14;;;;;;;1.50;0.50;;;;;;;;;;4368154;32;20075;-56
2021/09/14 08:53:42;;;;;;;2.45;0.60;;;;;;;;;;4370833;32;20063;-56
2021/09/14 08:56:13;;;;;;;1.33;0.50;;;;;;;;;;4370521;32;20055;-56
2021/09/14 08:58:41;;;;;;;4.78;0.60;;;;;;;;;;4370723;32;20117;-56
2021/09/14 09:01:11;;;;;;;1.90;0.73;;;;;;;;;;4369271;32;20068;-56
2021/09/14 09:03:40;;;;;;;1.15;0.50;;;;;;;;;;4370181;32;20077;-56
2021/09/14 09:06:12;;;;;;;3.10;0.50;;;;;;;;;;4369595;32;20706;-57
2021/09/14 09:08:40;;;;;;;2.28;0.57;;;;;;;;;;4371078;32;20098;-56
2021/09/14 09:11:09;;;;;;;1.30;0.70;;;;;;;;;;4369973;32;20491;-56
2021/09/14 09:13:43;;;;;;;1.92;0.60;;;;;;;;;;4370141;32;20060;-56
2021/09/14 09:16:19;;;;;;;1.75;0.68;;;;;;;;;;4370633;32;20094;-57
2021/09/14 09:18:54;;;;;;;2.90;0.55;;;;;;;;;;4369853;32;20153;-56
2021/09/14 09:21:36;;;;;;;2.10;0.70;;;;;;;;;;4366830;32;20099;-56
2021/09/14 09:24:06;;;;;;;2.70;0.40;;;;;;;;;;4366426;32;20158;-56
2021/09/14 09:26:39;;;;;;;3.22;0.70;;;;;;;;;;4363897;32;20671;-56
2021/09/14 09:29:08;;;;;;;2.53;0.70;;;;;;;;;;4367682;32;20093;-56
2021/09/14 09:31:37;;;;;;;2.70;0.95;;;;;;;;;;4366422;32;20514;-56
2021/09/14 09:34:06;;;;;;;2.70;0.60;;;;;;;;;;4367665;32;20087;-56
2021/09/14 09:36:37;;;;;;;3.33;0.85;;;;;;;;;;4366244;32;20043;-55
2021/09/14 09:39:07;;;;;;;2.12;0.80;;;;;;;;;;4366119;32;20090;-56
2021/09/14 09:41:38;;;;;;;3.83;0.62;;;;;;;;;;4366161;32;20099;-56
2021/09/14 09:44:12;;;;;;;5.00;0.90;;;;;;;;;;4366061;32;21159;-56
2021/09/14 09:46:41;;;;;;;3.12;1.00;;;;;;;;;;4365579;32;20047;-56
2021/09/14 09:49:11;;;;;;;3.95;1.00;;;;;;;;;;4367910;32;20047;-55
2021/09/14 09:51:39;;;;;;;2.87;0.80;;;;;;;;;;4365521;32;20162;-56
2021/09/14 09:54:07;;;;;;;4.25;0.60;;;;;;;;;;4368163;32;20137;-56
2021/09/14 09:56:36;;;;;;;4.10;0.80;;;;;;;;;;4365532;32;20607;-55
2021/09/14 09:59:04;;;;;;;4.10;0.90;;;;;;;;;;4365748;32;20088;-55
2021/09/14 10:01:34;;;;;;;4.62;1.05;;;;;;;;;;4367560;32;20720;-55
2021/09/14 10:04:17;;;;;;;2.20;0.90;;;;;;;;;;4367686;32;20043;-56
2021/09/14 10:06:47;;;;;;;2.90;0.80;;;;;;;;;;4365651;32;20073;-56
2021/09/14 10:09:16;;;;;;;3.03;0.60;;;;;;;;;;4372096;32;20071;-56
2021/09/14 10:11:54;;;;;;;1.77;0.50;;;;;;;;;;4369263;32;20073;-55
2021/09/14 10:14:23;;;;;;;2.75;0.90;;;;;;;;;;4372061;32;20065;-55
2021/09/14 10:16:51;;;;;;;4.12;0.90;;;;;;;;;;4369438;32;20379;-56
2021/09/14 10:19:31;;;;;;;3.70;0.68;;;;;;;;;;4371052;32;20137;-56
2021/09/14 10:21:59;;;;;;;2.95;1.08;;;;;;;;;;4365645;32;20146;-55
2021/09/14 10:24:28;;;;;;;2.42;0.73;;;;;;;;;;4364959;32;20670;-56
2021/09/14 10:27:09;;;;;;;2.87;0.70;;;;;;;;;;4366972;32;20067;-56
2021/09/14 10:29:38;;;;;;;2.58;0.70;;;;;;;;;;4367284;32;20121;-56
2021/09/14 10:32:08;;;;;;;3.78;0.70;;;;;;;;;;4364954;32;20102;-56
2021/09/14 10:34:42;;;;;;;4.18;0.80;;;;;;;;;;4364810;32;20156;-55
2021/09/14 10:37:12;;;;;;;1.45;0.80;;;;;;;;;;4370256;32;20525;-55
2021/09/14 10:39:42;;;;;;;4.20;0.88;;;;;;;;;;4370402;32;20993;-56
2021/09/14 10:42:17;;;;;;;3.40;0.80;;;;;;;;;;4367008;32;20079;-55
2021/09/14 10:44:47;;;;;;;4.10;0.90;;;;;;;;;;4368549;32;20079;-56
2021/09/14 10:47:16;;;;;;;2.35;0.70;;;;;;;;;;4370131;32;20069;-56
2021/09/14 10:49:59;;;;;;;3.33;0.80;;;;;;;;;;4368656;32;20067;-56
2021/09/14 10:52:32;;;;;;;4.12;0.90;;;;;;;;;;4368702;32;20055;-56
2021/09/14 10:55:17;;;;;;;1.45;0.70;;;;;;;;;;4369745;32;20048;-56
2021/09/14 10:57:47;;;;;;;1.60;0.80;;;;;;;;;;4367631;32;20051;-56
2021/09/14 11:00:17;;;;;;;2.45;0.70;;;;;;;;;;4360412;32;20695;-56
2021/09/14 11:02:58;;;;;;;2.05;0.80;;;;;;;;;;4358438;32;20091;-56
2021/09/14 11:05:27;;;;;;;1.37;0.60;;;;;;;;;;4357960;32;20117;-56
2021/09/14 11:08:06;;;;;;;2.12;0.70;;;;;;;;;;4356623;32;20067;-56
2021/09/14 11:10:39;;;;;;;1.67;0.62;;;;;;;;;;4357132;32;20102;-56
2021/09/14 11:13:18;;;;;;;2.72;0.77;;;;;;;;;;4358399;32;20087;-56
2021/09/14 11:15:46;;;;;;;4.22;0.70;;;;;;;;;;4358799;32;20168;-56
2021/09/14 11:18:22;;;;;;;1.75;0.70;;;;;;;;;;4362771;32;20067;-56
2021/09/14 11:20:51;;;;;;;4.18;0.85;;;;;;;;;;4366285;32;20089;-56
2021/09/14 11:23:23;;;;;;;3.58;0.60;;;;;;;;;;4365707;32;20486;-55
2021/09/14 11:25:53;;;;;;;1.62;0.68;;;;;;;;;;4365797;32;20102;-56
2021/09/14 11:28:22;;;;;;;3.72;0.80;;;;;;;;;;4365294;32;20105;-56
2021/09/14 11:30:57;;;;;;;2.97;0.60;;;;;;;;;;4366951;32;20066;-56
2021/09/14 11:33:26;;;;;;;1.80;0.50;;;;;;;;;;4363838;32;20051;-56
2021/09/14 11:35:56;;;;;;;3.53;0.85;;;;;;;;;;4358298;32;20059;-56
2021/09/14 11:38:24;;;;;;;3.65;0.80;;;;;;;;;;4365638;32;20067;-56
2021/09/14 11:40:54;;;;;;;4.30;0.77;;;;;;;;;;4368952;32;20074;-56
2021/09/14 11:43:30;;;;;;;2.87;0.68;;;;;;;;;;4369649;32;20063;-56
2021/09/14 11:45:58;;;;;;;4.00;0.68;;;;;;;;;;4365857;32;20188;-56
2021/09/14 11:48:28;;;;;;;1.27;0.50;;;;;;;;;;4365333;32;20106;-56
2021/09/14 11:51:04;;;;;;;2.50;0.70;;;;;;;;;;4366469;32;20067;-56
2021/09/14 11:53:32;;;;;;;2.67;0.60;;;;;;;;;;4366694;32;20670;-56
2021/09/14 11:56:10;;;;;;;2.37;0.68;;;;;;;;;;4362940;32;20094;-56
2021/09/14 11:58:43;;;;;;;2.22;0.60;;;;;;;;;;4367467;32;20066;-56
2021/09/14 12:01:12;;;;;;;1.87;0.43;;;;;;;;;;4366059;32;20047;-56
2021/09/14 12:03:43;;;;;;;3.03;0.90;;;;;;;;;;4365108;32;20079;-56
2021/09/14 12:06:12;;;;;;;2.65;0.70;;;;;;;;;;4365051;32;20098;-56
2021/09/14 12:08:41;;;;;;;2.72;0.70;;;;;;;;;;4363342;32;20082;-56
2021/09/14 12:11:10;;;;;;;2.37;0.57;;;;;;;;;;4365845;32;20899;-56
2021/09/14 12:13:40;;;;;;;2.55;0.60;;;;;;;;;;4366683;32;20040;-56
2021/09/14 12:16:24;;;;;;;5.50;0.70;;;;;;;;;;4370299;32;20047;-56
2021/09/14 12:18:53;;;;;;;1.52;0.62;;;;;;;;;;4372100;32;20115;-56
2021/09/14 12:21:21;;;;;;;2.83;0.50;;;;;;;;;;4371493;32;20412;-56
2021/09/14 12:23:50;;;;;;;2.03;0.60;;;;;;;;;;4370863;32;20109;-56
2021/09/14 12:26:23;;;;;;;2.45;0.62;;;;;;;;;;4372375;32;20189;-56
2021/09/14 12:28:54;;;;;;;2.70;0.70;;;;;;;;;;4370965;32;20067;-56
2021/09/14 12:31:24;;;;;;;2.87;0.55;;;;;;;;;;4369162;32;20120;-56
2021/09/14 12:33:52;;;;;;;1.92;0.40;;;;;;;;;;4371297;32;20059;-55
2021/09/14 12:36:20;;;;;;;3.00;0.50;;;;;;;;;;4369576;32;20114;-56
2021/09/14 12:38:49;;;;;;;3.20;0.50;;;;;;;;;;4366549;32;20072;-56
2021/09/14 12:41:18;;;;;;;1.70;0.50;;;;;;;;;;4369000;32;20132;-56
2021/09/14 12:43:50;;;;;;;2.90;0.60;;;;;;;;;;4366072;32;20099;-55
2021/09/14 12:46:20;;;;;;;4.40;0.90;;;;;;;;;;4367995;32;20541;-55
2021/09/14 12:48:48;;;;;;;3.70;0.60;;;;;;;;;;4369139;32;20094;-55
2021/09/14 12:51:16;;;;;;;2.10;0.55;;;;;;;;;;4367390;32;20078;-55
2021/09/14 12:53:45;;;;;;;3.70;0.75;;;;;;;;;;4367894;32;20148;-55
2021/09/14 12:56:13;;;;;;;5.10;0.82;;;;;;;;;;4368169;32;20140;-56
2021/09/14 12:58:48;;;;;;;3.85;0.68;;;;;;;;;;4366623;32;20055;-56
2021/09/14 13:01:17;;;;;;;3.83;0.55;;;;;;;;;;4368094;32;21633;-55
2021/09/14 13:03:46;;;;;;;4.12;0.80;;;;;;;;;;4367286;32;20035;-55
2021/09/14 13:06:15;;;;;;;2.40;0.62;;;;;;;;;;4365784;32;20055;-55
2021/09/14 13:08:43;;;;;;;3.87;0.47;;;;;;;;;;4367180;32;20079;-55
2021/09/14 13:11:11;;;;;;;4.55;0.90;;;;;;;;;;4367144;32;20071;-55
2021/09/14 13:16:27;;;;;;;3.53;0.80;;;;;;;;;;4367206;32;20067;-56
2021/09/14 13:18:56;;;;;;;4.68;0.82;;;;;;;;;;4368244;32;20083;-56
2021/09/14 13:21:25;;;;;;;4.50;0.75;;;;;;;;;;4368219;32;20156;-56
2021/09/14 13:23:53;;;;;;;3.42;0.50;;;;;;;;;;4368690;32;20680;-55
2021/09/14 13:26:22;;;;;;;3.45;0.65;;;;;;;;;;4366616;32;20357;-55
2021/09/14 13:28:51;;;;;;;2.40;0.52;;;;;;;;;;4366249;32;20070;-55
2021/09/14 13:31:20;;;;;;;2.75;0.50;;;;;;;;;;4368277;32;20126;-55
2021/09/14 13:33:48;;;;;;;2.40;0.50;;;;;;;;;;4368166;32;20070;-55
2021/09/14 13:36:17;;;;;;;3.12;0.60;;;;;;;;;;4360278;32;20143;-56
2021/09/14 13:38:45;;;;;;;4.70;0.80;;;;;;;;;;4366991;32;20117;-55
2021/09/14 13:41:16;;;;;;;3.35;0.70;;;;;;;;;;4367988;32;20614;-55
2021/09/14 13:46:16;;;;;;;5.55;0.55;;;;;;;;;;4368184;32;20070;-55
2021/09/14 13:48:46;;;;;;;2.55;0.68;;;;;;;;;;4367738;32;20062;-55
2021/09/14 13:51:16;;;;;;;4.90;0.65;;;;;;;;;;4369545;32;20047;-55
2021/09/14 13:53:45;;;;;;;4.78;0.60;;;;;;;;;;4366306;32;20643;-55
2021/09/14 13:56:16;;;;;;;3.12;0.93;;;;;;;;;;4370219;32;20079;-55
2021/09/14 13:58:44;;;;;;;3.25;0.80;;;;;;;;;;4371365;32;20110;-55
2021/09/14 14:01:13;;;;;;;5.55;0.80;;;;;;;;;;4371543;32;20181;-55
2021/09/14 14:03:42;;;;;;;3.35;0.80;;;;;;;;;;4367473;32;20431;-55
2021/09/14 14:06:10;;;;;;;3.12;0.65;;;;;;;;;;4365387;32;20154;-55
2021/09/14 14:08:39;;;;;;;3.70;0.50;;;;;;;;;;4369207;32;20091;-55
2021/09/14 14:11:07;;;;;;;3.12;0.60;;;;;;;;;;4369119;32;20074;-55
2021/09/14 14:13:36;;;;;;;4.70;0.70;;;;;;;;;;4365724;32;20440;-55
2021/09/14 14:16:04;;;;;;;2.22;0.40;;;;;;;;;;4367826;32;20071;-55
2021/09/14 14:18:34;;;;;;;3.90;0.50;;;;;;;;;;4366068;32;20044;-55
2021/09/14 14:21:02;;;;;;;4.70;0.82;;;;;;;;;;4365835;32;20092;-55
2021/09/14 14:23:30;;;;;;;4.30;0.60;;;;;;;;;;4367536;32;20119;-55
2021/09/14 14:25:59;;;;;;;2.92;0.50;;;;;;;;;;4370544;32;20091;-55
2021/09/14 14:28:27;;;;;;;4.43;0.70;;;;;;;;;;4367366;32;20484;-55
2021/09/14 14:30:55;;;;;;;2.50;0.55;;;;;;;;;;4368951;32;20071;-55
2021/09/14 14:33:24;;;;;;;4.12;0.50;;;;;;;;;;4369543;32;20039;-55
2021/09/14 14:35:52;;;;;;;3.03;0.52;;;;;;;;;;4369815;32;20600;-55
2021/09/14 14:38:20;;;;;;;3.58;0.80;;;;;;;;;;4370207;32;20051;-55
2021/09/14 14:40:49;;;;;;;3.30;0.50;;;;;;;;;;4370184;32;20085;-55
2021/09/14 14:43:17;;;;;;;4.03;0.70;;;;;;;;;;4369381;32;20079;-55
2021/09/14 14:45:45;;;;;;;2.35;0.60;;;;;;;;;;4370310;32;20047;-55
2021/09/14 14:48:14;;;;;;;4.28;0.93;;;;;;;;;;4370581;32;20109;-55
2021/09/14 14:50:42;;;;;;;1.65;0.60;;;;;;;;;;4370264;32;20134;-55
2021/09/14 14:53:10;;;;;;;2.53;0.68;;;;;;;;;;4368712;32;20099;-55
2021/09/14 14:55:39;;;;;;;4.32;0.77;;;;;;;;;;4368370;32;20043;-55
2021/09/14 14:58:07;;;;;;;5.82;0.75;;;;;;;;;;4366065;32;20066;-55
2021/09/14 15:00:35;;;;;;;2.12;0.50;;;;;;;;;;4365188;32;20055;-55
2021/09/14 15:03:04;;;;;;;2.90;0.60;;;;;;;;;;4363588;32;20509;-55
2021/09/14 15:05:32;;;;;;;6.37;0.70;;;;;;;;;;4365005;32;20113;-55
2021/09/14 15:08:00;;;;;;;3.67;0.80;;;;;;;;;;4365736;32;20070;-55
2021/09/14 15:10:30;;;;;;;2.45;0.70;;;;;;;;;;4364276;32;20144;-55
2021/09/14 15:12:58;;;;;;;3.50;0.60;;;;;;;;;;4358622;32;20118;-55
2021/09/14 15:15:27;;;;;;;2.55;0.75;;;;;;;;;;4358493;32;21853;-55
2021/09/14 15:17:55;;;;;;;5.05;0.70;;;;;;;;;;4354076;32;20533;-55
2021/09/14 15:20:24;;;;;;;3.60;0.70;;;;;;;;;;4352656;32;20090;-55
2021/09/14 15:22:52;;;;;;;5.12;0.50;;;;;;;;;;4358678;32;20129;-55
2021/09/14 15:25:20;;;;;;;3.35;0.70;;;;;;;;;;4361047;32;20658;-55
2021/09/14 15:27:49;;;;;;;5.55;0.60;;;;;;;;;;4362726;32;20540;-55
2021/09/14 15:30:29;;;;;;;5.03;0.75;;;;;;;;;;4361967;32;20134;-55
2021/09/14 15:32:59;;;;;;;5.22;0.93;;;;;;;;;;4363715;32;20079;-54
2021/09/14 15:35:34;;;;;;;;;;;;;;;;;;1943202;32;10000990;-55